createdAt,value
2018-09-27T04:32:30.392Z,3.97
2018-09-27T04:35:03.025Z,4.70
2018-09-27T04:37:33.187Z,3.80
2018-09-27T04:40:02.678Z,6.57
2018-09-27T04:42:31.264Z,2.80
2018-09-27T04:45:03.353Z,3.23
2018-09-27T04:47:33.186Z,3.60
2018-09-27T04:50:01.386Z,2.97
2018-09-27T04:52:29.866Z,2.80
2018-09-27T04:54:58.099Z,7.00
2018-09-27T04:57:27.239Z,3.87
2018-09-27T04:59:55.841Z,6.03
2018-09-27T05:02:24.174Z,6.50
2018-09-27T05:04:52.375Z,3.73
2018-09-27T05:07:20.746Z,4.90
2018-09-27T05:09:49.047Z,4.33
2018-09-27T05:12:17.176Z,3.17
2018-09-27T05:14:45.293Z,4.60
2018-09-27T05:17:13.897Z,2.23
2018-09-27T05:19:42.731Z,3.57
2018-09-27T05:22:10.909Z,3.97
2018-09-27T05:24:40.107Z,4.10
2018-09-27T05:27:08.214Z,3.07
2018-09-27T05:29:36.537Z,1.80
2018-09-27T05:32:04.669Z,2.70
2018-09-27T05:34:33.331Z,8.00
2018-09-27T05:37:01.828Z,4.53
2018-09-27T05:39:29.896Z,4.30
2018-09-27T05:41:57.896Z,5.93
2018-09-27T05:44:25.921Z,3.73
2018-09-27T05:46:53.986Z,10.00
2018-09-27T05:49:22.025Z,4.90
2018-09-27T05:51:50.121Z,3.40
2018-09-27T05:54:18.341Z,5.70
2018-09-27T05:56:46.456Z,4.13
2018-09-27T05:59:14.840Z,4.00
2018-09-27T06:01:42.944Z,5.23
2018-09-27T06:04:10.977Z,4.77
2018-09-27T06:06:39.096Z,4.30
2018-09-27T06:09:08.524Z,2.30
2018-09-27T06:11:36.624Z,2.77
2018-09-27T06:14:05.208Z,5.07
2018-09-27T06:16:33.284Z,2.83
2018-09-27T06:19:01.333Z,5.00
2018-09-27T06:21:29.881Z,6.80
2018-09-27T06:23:57.929Z,2.90
2018-09-27T06:26:26.538Z,4.10
2018-09-27T06:28:54.725Z,4.40
2018-09-27T06:31:22.725Z,3.03
2018-09-27T06:33:50.872Z,2.20
2018-09-27T06:36:18.928Z,2.87
2018-09-27T06:38:46.944Z,2.57
2018-09-27T06:41:16.109Z,4.60
2018-09-27T06:43:44.508Z,3.17
2018-09-27T06:46:12.864Z,5.67
2018-09-27T06:48:41.168Z,2.87
2018-09-27T06:51:09.726Z,2.83
2018-09-27T06:53:38.892Z,2.77
2018-09-27T06:56:07.876Z,2.50
2018-09-27T06:58:36.579Z,5.13
2018-09-27T07:01:05.058Z,2.57
2018-09-27T07:03:33.337Z,3.33
2018-09-27T07:06:01.670Z,3.67
2018-09-27T07:08:30.254Z,2.27
2018-09-27T07:10:58.701Z,3.40
2018-09-27T07:13:26.760Z,3.00
2018-09-27T07:15:55.181Z,3.67
2018-09-27T07:18:23.836Z,3.47
2018-09-27T07:20:52.314Z,3.10
2018-09-27T07:23:20.327Z,5.07
2018-09-27T07:25:48.662Z,2.23
2018-09-27T07:28:16.916Z,4.37
2018-09-27T07:30:47.282Z,2.70
2018-09-27T07:33:15.708Z,3.60
2018-09-27T07:35:43.841Z,4.47
2018-09-27T07:38:12.666Z,2.70
2018-09-27T07:40:41.080Z,4.10
2018-09-27T07:43:09.144Z,3.10
2018-09-27T07:45:38.531Z,3.60
2018-09-27T07:48:07.528Z,3.27
2018-09-27T07:50:35.852Z,5.40
2018-09-27T07:53:04.999Z,4.00
2018-09-27T07:55:33.189Z,2.80
2018-09-27T07:58:01.659Z,2.80
2018-09-27T08:00:30.159Z,3.43
2018-09-27T08:02:58.727Z,3.70
2018-09-27T08:05:27.294Z,4.97
2018-09-27T08:07:55.794Z,3.90
2018-09-27T08:10:23.953Z,4.33
2018-09-27T08:12:52.415Z,2.50
2018-09-27T08:15:20.697Z,4.37
2018-09-27T08:17:49.297Z,2.80
2018-09-27T08:20:17.566Z,2.40
2018-09-27T08:22:46.069Z,2.83
2018-09-27T08:25:14.501Z,2.27
2018-09-27T08:27:42.575Z,3.03
2018-09-27T08:30:10.593Z,3.00
2018-09-27T08:32:38.638Z,4.70
2018-09-27T08:35:06.691Z,2.43
2018-09-27T08:37:35.172Z,4.93
2018-09-27T08:40:03.276Z,3.27
2018-09-27T08:42:31.677Z,3.33
2018-09-27T08:44:59.908Z,5.80
2018-09-27T08:47:28.089Z,4.23
2018-09-27T08:49:56.798Z,4.47
2018-09-27T08:52:24.838Z,5.03
2018-09-27T08:54:52.889Z,8.53
2018-09-27T08:57:20.919Z,6.03
2018-09-27T08:59:49.148Z,3.93
2018-09-27T09:02:17.132Z,4.10
2018-09-27T09:04:45.873Z,6.60
2018-09-27T09:07:13.933Z,2.20
2018-09-27T09:09:41.997Z,2.80
2018-09-27T09:12:10.757Z,4.87
2018-09-27T09:14:39.207Z,3.07
2018-09-27T09:17:07.945Z,2.87
2018-09-27T09:19:36.527Z,3.10
2018-09-27T09:22:06.119Z,1.90
2018-09-27T09:24:35.189Z,2.33
2018-09-27T09:27:03.195Z,5.43
2018-09-27T09:29:32.656Z,3.57
2018-09-27T09:32:01.018Z,2.03
2018-09-27T09:34:29.122Z,2.27
2018-09-27T09:36:57.154Z,3.00
2018-09-27T09:39:25.489Z,3.27
2018-09-27T09:41:57.157Z,2.40
2018-09-27T09:44:26.498Z,2.00
2018-09-27T09:46:56.199Z,1.67
2018-09-27T09:51:59.144Z,2.30
2018-09-27T09:54:27.323Z,4.27
2018-09-27T09:56:57.072Z,2.00
2018-09-27T09:59:27.429Z,1.80
2018-09-27T10:02:03.102Z,4.00
2018-09-27T10:04:31.111Z,2.37
2018-09-27T10:07:02.214Z,3.03
2018-09-27T10:09:31.770Z,3.07
2018-09-27T10:12:02.707Z,2.90
2018-09-27T10:14:35.409Z,2.03
2018-09-27T10:17:03.488Z,1.73
2018-09-27T10:19:32.115Z,1.73
2018-09-27T10:22:03.915Z,1.80
2018-09-27T10:24:31.977Z,2.80
2018-09-27T10:27:00.086Z,2.20
2018-09-27T10:29:28.328Z,2.03
2018-09-27T10:31:57.042Z,3.97
2018-09-27T10:34:25.565Z,3.77
2018-09-27T10:36:54.521Z,3.63
2018-09-27T10:39:22.736Z,3.23
2018-09-27T10:41:51.384Z,2.17
2018-09-27T10:44:20.029Z,3.57
2018-09-27T10:46:49.716Z,4.23
2018-09-27T10:49:18.560Z,2.77
2018-09-27T10:51:49.746Z,2.00
2018-09-27T10:54:19.883Z,9.80
2018-09-27T10:56:48.976Z,3.30
2018-09-27T10:59:17.399Z,1.63
2018-09-27T11:01:46.028Z,2.03
2018-09-27T11:04:15.211Z,1.40
2018-09-27T11:06:43.120Z,6.83
2018-09-27T11:09:11.122Z,4.50
2018-09-27T11:11:39.135Z,2.37
2018-09-27T11:14:07.083Z,3.40
2018-09-27T11:16:35.143Z,2.27
2018-09-27T11:19:03.170Z,4.20
2018-09-27T11:21:31.201Z,2.40
2018-09-27T11:23:59.153Z,3.37
2018-09-27T11:26:27.366Z,3.10
2018-09-27T11:29:00.752Z,5.47
2018-09-27T11:31:34.149Z,3.00
2018-09-27T11:34:02.179Z,2.80
2018-09-27T11:36:30.170Z,3.90
2018-09-27T11:38:58.137Z,2.57
2018-09-27T11:41:26.155Z,6.13
2018-09-27T11:43:54.408Z,3.97
2018-09-27T11:46:22.352Z,4.07
2018-09-27T11:48:50.384Z,3.13
2018-09-27T11:51:18.356Z,4.93
2018-09-27T11:53:46.389Z,4.03
2018-09-27T11:56:14.377Z,4.50
2018-09-27T11:58:42.352Z,2.50
2018-09-27T12:01:10.392Z,2.40
2018-09-27T12:03:38.462Z,4.23
2018-09-27T12:06:06.481Z,3.13
2018-09-27T12:08:34.836Z,2.60
2018-09-27T12:11:02.806Z,3.50
2018-09-27T12:13:30.940Z,2.40
2018-09-27T12:15:58.896Z,3.33
2018-09-27T12:18:26.854Z,1.83
2018-09-27T12:20:54.826Z,2.93
2018-09-27T12:23:22.821Z,1.77
2018-09-27T12:25:50.814Z,4.10
2018-09-27T12:28:19.307Z,3.23
2018-09-27T12:30:47.344Z,2.37
2018-09-27T12:33:15.441Z,1.77
2018-09-27T12:35:43.408Z,3.37
2018-09-27T12:38:11.417Z,3.20
2018-09-27T12:40:39.458Z,2.20
2018-09-27T12:43:07.457Z,2.00
2018-09-27T12:45:35.469Z,3.03
2018-09-27T12:48:03.503Z,2.33
2018-09-27T12:50:31.453Z,2.63
2018-09-27T12:52:59.500Z,6.50
2018-09-27T12:55:27.501Z,2.00
2018-09-27T12:57:55.507Z,3.40
2018-09-27T13:00:23.554Z,1.90
2018-09-27T13:02:51.678Z,3.30
2018-09-27T13:05:19.806Z,1.80
2018-09-27T13:07:47.827Z,4.40
2018-09-27T13:10:15.970Z,4.00
2018-09-27T13:12:44.229Z,3.50
2018-09-27T13:15:12.218Z,4.90
2018-09-27T13:17:40.258Z,3.40
2018-09-27T13:20:08.414Z,5.30
2018-09-27T13:22:36.433Z,2.77
2018-09-27T13:25:04.594Z,1.53
2018-09-27T13:27:32.544Z,1.47
2018-09-27T13:30:00.580Z,3.60
2018-09-27T13:32:28.954Z,2.50
2018-09-27T13:34:57.232Z,1.77
2018-09-27T13:37:25.279Z,4.73
2018-09-27T13:39:53.278Z,3.53
2018-09-27T13:42:21.223Z,2.37
2018-09-27T13:44:49.239Z,4.63
2018-09-27T13:47:17.237Z,1.70
2018-09-27T13:49:45.226Z,2.83
2018-09-27T13:52:13.752Z,2.40
2018-09-27T13:54:41.839Z,1.80
2018-09-27T13:57:10.176Z,2.93
2018-09-27T13:59:38.408Z,1.93
2018-09-27T14:02:06.453Z,1.87
2018-09-27T14:04:34.864Z,3.87
2018-09-27T14:07:02.957Z,2.27
2018-09-27T14:09:31.173Z,4.93
2018-09-27T14:11:59.176Z,3.27
2018-09-27T14:14:27.237Z,4.50
2018-09-27T14:16:55.511Z,2.00
2018-09-27T14:19:23.724Z,1.90
2018-09-27T14:21:52.303Z,2.33
2018-09-27T14:24:20.364Z,2.60
2018-09-27T14:26:48.365Z,2.70
2018-09-27T14:29:16.433Z,2.20
2018-09-27T14:31:44.538Z,2.87
2018-09-27T14:34:13.025Z,3.67
2018-09-27T14:36:41.159Z,4.03
2018-09-27T14:39:10.001Z,1.87
2018-09-27T14:41:38.076Z,2.50
2018-09-27T14:44:06.178Z,2.70
2018-09-27T14:46:34.250Z,1.90
2018-09-27T14:49:02.365Z,2.60
2018-09-27T14:51:30.390Z,2.70
2018-09-27T14:53:58.723Z,4.80
2018-09-27T14:56:26.724Z,2.60
2018-09-27T14:58:54.718Z,8.37
2018-09-27T15:01:22.761Z,3.17
2018-09-27T15:03:51.165Z,2.10
2018-09-27T15:06:19.267Z,4.10
2018-09-27T15:08:47.309Z,2.50
2018-09-27T15:11:15.599Z,2.13
2018-09-27T15:13:43.844Z,2.00
2018-09-27T15:16:12.131Z,2.90
2018-09-27T15:18:40.111Z,3.23
2018-09-27T15:21:08.394Z,3.70
2018-09-27T15:23:37.029Z,3.90
2018-09-27T15:26:04.938Z,2.20
2018-09-27T15:28:33.025Z,3.23
2018-09-27T15:31:01.389Z,8.03
2018-09-27T15:33:30.225Z,6.03
2018-09-27T15:35:58.844Z,6.03
2018-09-27T15:38:27.277Z,4.43
2018-09-27T15:40:55.633Z,5.57
2018-09-27T15:43:23.641Z,4.00
2018-09-27T15:45:51.882Z,4.70
2018-09-27T15:48:20.109Z,4.00
2018-09-27T15:50:48.337Z,2.90
2018-09-27T15:53:16.949Z,2.07
2018-09-27T15:55:45.043Z,3.60
2018-09-27T15:58:13.308Z,6.30
2018-09-27T16:00:41.599Z,2.83
2018-09-27T16:03:10.239Z,1.77
2018-09-27T16:05:38.676Z,7.93
2018-09-27T16:08:07.111Z,4.10
2018-09-27T16:10:35.673Z,3.53
2018-09-27T16:13:04.314Z,4.27
2018-09-27T16:15:32.531Z,2.83
2018-09-27T16:18:00.509Z,4.23
2018-09-27T16:20:28.520Z,1.73
2018-09-27T16:22:56.838Z,4.17
2018-09-27T16:25:24.793Z,5.23
2018-09-27T16:27:52.804Z,3.90
2018-09-27T16:30:20.832Z,5.03
2018-09-27T16:32:49.135Z,2.43
2018-09-27T16:35:17.177Z,2.47
2018-09-27T16:37:45.185Z,3.60
2018-09-27T16:40:13.199Z,2.83
2018-09-27T16:42:41.439Z,4.10
2018-09-27T16:45:09.427Z,4.30
2018-09-27T16:47:37.429Z,4.27
2018-09-27T16:50:05.445Z,2.83
2018-09-27T16:52:33.430Z,2.60
2018-09-27T16:55:01.687Z,3.13
2018-09-27T16:57:30.574Z,3.70
2018-09-27T16:59:58.612Z,2.13
2018-09-27T17:02:26.917Z,6.03
2018-09-27T17:04:54.885Z,4.07
2018-09-27T17:07:22.866Z,3.43
2018-09-27T17:09:50.873Z,5.00
2018-09-27T17:12:18.916Z,5.70
2018-09-27T17:14:46.917Z,2.60
2018-09-27T17:17:14.914Z,5.93
2018-09-27T17:19:43.016Z,13.57
2018-09-27T17:22:11.025Z,7.53
2018-09-27T17:24:39.181Z,9.47
2018-09-27T17:27:07.753Z,4.87
2018-09-27T17:29:35.803Z,6.20
2018-09-27T17:32:03.801Z,10.27
2018-09-27T17:34:32.060Z,4.30
2018-09-27T17:37:00.322Z,4.17
2018-09-27T17:39:28.354Z,2.60
2018-09-27T17:41:56.358Z,5.90
2018-09-27T17:44:24.356Z,6.50
2018-09-27T17:46:52.371Z,3.47
2018-09-27T17:49:20.564Z,5.63
2018-09-27T17:51:48.845Z,6.37
2018-09-27T17:54:16.916Z,5.43
2018-09-27T17:56:45.196Z,3.00
2018-09-27T17:59:13.573Z,8.70
2018-09-27T18:01:41.635Z,12.70
2018-09-27T18:04:09.585Z,13.30
2018-09-27T18:06:37.829Z,9.10
2018-09-27T18:09:07.598Z,6.47
2018-09-27T18:11:35.592Z,6.27
2018-09-27T18:14:03.570Z,7.53
2018-09-27T18:16:31.856Z,10.03
2018-09-27T18:19:00.133Z,8.03
2018-09-27T18:21:28.099Z,14.60
2018-09-27T18:23:56.421Z,6.67
2018-09-27T18:26:24.455Z,7.70
2018-09-27T18:28:52.465Z,9.37
2018-09-27T18:31:21.053Z,23.67
2018-09-27T18:33:49.590Z,19.80
2018-09-27T18:36:18.054Z,17.03
2018-09-27T18:38:46.553Z,15.30
2018-09-27T18:41:14.803Z,7.30
2018-09-27T18:43:43.445Z,7.97
2018-09-27T18:46:12.372Z,8.50
2018-09-27T18:48:41.044Z,10.80
2018-09-27T18:51:09.145Z,8.50
2018-09-27T18:53:37.356Z,11.30
2018-09-27T18:56:05.330Z,9.93
2018-09-27T18:58:33.343Z,8.73
2018-09-27T19:01:01.788Z,5.10
2018-09-27T19:03:29.811Z,6.53
2018-09-27T19:05:57.863Z,10.23
2018-09-27T19:08:26.434Z,8.43
2018-09-27T19:10:54.875Z,4.10
2018-09-27T19:13:23.121Z,5.40
2018-09-27T19:15:51.888Z,5.83
2018-09-27T19:18:20.493Z,6.10
2018-09-27T19:20:48.731Z,6.03
2018-09-27T19:23:16.717Z,6.23
2018-09-27T19:25:44.928Z,6.80
2018-09-27T19:28:12.924Z,6.23
2018-09-27T19:30:40.944Z,4.67
2018-09-27T19:33:09.216Z,5.50
2018-09-27T19:35:37.248Z,7.63
2018-09-27T19:38:05.269Z,8.20
2018-09-27T19:40:33.307Z,7.33
2018-09-27T19:43:02.169Z,10.80
2018-09-27T19:45:30.882Z,8.37
2018-09-27T19:48:00.048Z,9.83
2018-09-27T19:50:28.686Z,5.93
2018-09-27T19:52:56.830Z,5.03
2018-09-27T19:55:24.952Z,4.90
2018-09-27T19:57:53.030Z,6.70
2018-09-27T20:00:21.105Z,3.70
2018-09-27T20:02:49.122Z,9.60
2018-09-27T20:05:17.126Z,5.00
2018-09-27T20:07:45.304Z,8.20
2018-09-27T20:10:13.381Z,9.20
2018-09-27T20:12:41.573Z,8.70
2018-09-27T20:15:09.576Z,4.37
2018-09-27T20:17:37.824Z,5.33
2018-09-27T20:20:06.011Z,4.93
2018-09-27T20:22:34.165Z,7.47
2018-09-27T20:25:02.102Z,8.03
2018-09-27T20:27:30.133Z,4.93
2018-09-27T20:29:58.130Z,13.07
2018-09-27T20:32:26.125Z,6.63
2018-09-27T20:34:54.169Z,4.33
2018-09-27T20:37:22.580Z,9.83
2018-09-27T20:39:50.585Z,6.73
2018-09-27T20:42:18.902Z,7.70
2018-09-27T20:44:47.044Z,14.87
2018-09-27T20:47:15.116Z,7.50
2018-09-27T20:49:43.223Z,8.30
2018-09-27T20:55:15.198Z,8.50
2018-09-27T20:57:43.237Z,6.63
2018-09-27T21:00:11.244Z,9.30
2018-09-27T21:02:39.270Z,9.40
2018-09-27T21:05:07.377Z,7.83
2018-09-27T21:07:35.898Z,8.00
2018-09-27T21:10:04.191Z,10.03
2018-09-27T21:12:32.257Z,8.70
2018-09-27T21:15:00.744Z,9.80
2018-09-27T21:17:28.729Z,10.33
2018-09-27T21:19:56.764Z,10.00
2018-09-27T21:22:25.444Z,8.40
2018-09-27T21:24:53.492Z,11.87
2018-09-27T21:27:21.512Z,8.60
2018-09-27T21:29:49.635Z,9.03
2018-09-27T21:32:17.904Z,6.87
2018-09-27T21:34:45.962Z,6.40
2018-09-27T21:37:14.023Z,11.20
2018-09-27T21:39:42.546Z,7.27
2018-09-27T21:42:10.683Z,11.27
2018-09-27T21:44:38.757Z,14.43
2018-09-27T21:47:07.033Z,9.73
2018-09-27T21:49:35.146Z,7.30
2018-09-27T21:52:03.379Z,7.33
2018-09-27T21:54:31.476Z,10.77
2018-09-27T21:56:59.513Z,12.33
2018-09-27T21:59:27.891Z,12.47
